sensor_id;sensor_type;location;lat;lon;timestamp;temperature;humidity
64874;HTU21D;51367;45.204;38.576;2023-08-21T00:01:46;23.26;41.58
64874;HTU21D;51367;45.204;38.576;2023-08-21T00:04:11;23.24;41.67
64874;HTU21D;51367;45.204;38.576;2023-08-21T00:06:37;23.23;41.78
64874;HTU21D;51367;45.204;38.576;2023-08-21T00:09:03;23.18;41.78
64874;HTU21D;51367;45.204;38.576;2023-08-21T00:11:29;23.14;41.88
64874;HTU21D;51367;45.204;38.576;2023-08-21T00:13:55;23.09;42.06
64874;HTU21D;51367;45.204;38.576;2023-08-21T00:16:21;23.03;42.15
64874;HTU21D;51367;45.204;38.576;2023-08-21T00:18:47;22.94;42.36
64874;HTU21D;51367;45.204;38.576;2023-08-21T00:21:13;22.81;42.50
64874;HTU21D;51367;45.204;38.576;2023-08-21T00:23:39;22.67;42.75
64874;HTU21D;51367;45.204;38.576;2023-08-21T00:26:05;22.56;42.99
64874;HTU21D;51367;45.204;38.576;2023-08-21T00:28:31;22.50;43.21
64874;HTU21D;51367;45.204;38.576;2023-08-21T00:31:05;22.47;43.48
64874;HTU21D;51367;45.204;38.576;2023-08-21T00:33:32;22.42;43.45
64874;HTU21D;51367;45.204;38.576;2023-08-21T00:35:58;22.37;43.56
64874;HTU21D;51367;45.204;38.576;2023-08-21T00:38:24;22.32;43.70
64874;HTU21D;51367;45.204;38.576;2023-08-21T00:40:51;22.26;43.83
64874;HTU21D;51367;45.204;38.576;2023-08-21T00:43:17;22.17;43.96
64874;HTU21D;51367;45.204;38.576;2023-08-21T00:45:44;22.07;44.24
64874;HTU21D;51367;45.204;38.576;2023-08-21T00:48:12;22.04;44.42
64874;HTU21D;51367;45.204;38.576;2023-08-21T00:50:40;22.02;44.54
64874;HTU21D;51367;45.204;38.576;2023-08-21T00:53:07;21.98;44.60
64874;HTU21D;51367;45.204;38.576;2023-08-21T00:55:33;21.94;44.76
64874;HTU21D;51367;45.204;38.576;2023-08-21T00:58:00;21.90;44.90
64874;HTU21D;51367;45.204;38.576;2023-08-21T01:00:29;21.89;44.97
64874;HTU21D;51367;45.204;38.576;2023-08-21T01:02:55;21.84;45.11
64874;HTU21D;51367;45.204;38.576;2023-08-21T01:05:23;21.82;45.30
64874;HTU21D;51367;45.204;38.576;2023-08-21T01:08:03;21.81;45.53
64874;HTU21D;51367;45.204;38.576;2023-08-21T01:10:45;21.74;45.49
64874;HTU21D;51367;45.204;38.576;2023-08-21T01:15:59;21.54;45.70
64874;HTU21D;51367;45.204;38.576;2023-08-21T01:18:27;21.38;46.06
64874;HTU21D;51367;45.204;38.576;2023-08-21T01:20:54;21.15;46.32
64874;HTU21D;51367;45.204;38.576;2023-08-21T01:23:37;21.05;46.87
64874;HTU21D;51367;45.204;38.576;2023-08-21T01:26:04;21.04;46.68
64874;HTU21D;51367;45.204;38.576;2023-08-21T01:28:31;20.91;46.86
64874;HTU21D;51367;45.204;38.576;2023-08-21T01:31:22;20.71;47.43
64874;HTU21D;51367;45.204;38.576;2023-08-21T01:33:52;20.66;47.34
64874;HTU21D;51367;45.204;38.576;2023-08-21T01:36:20;20.64;47.38
64874;HTU21D;51367;45.204;38.576;2023-08-21T01:38:46;20.62;47.47
64874;HTU21D;51367;45.204;38.576;2023-08-21T01:41:13;20.58;47.54
64874;HTU21D;51367;45.204;38.576;2023-08-21T01:43:39;20.57;47.64
64874;HTU21D;51367;45.204;38.576;2023-08-21T01:46:06;20.56;47.80
64874;HTU21D;51367;45.204;38.576;2023-08-21T01:48:33;20.57;47.83
64874;HTU21D;51367;45.204;38.576;2023-08-21T01:51:02;20.60;47.93
64874;HTU21D;51367;45.204;38.576;2023-08-21T01:53:28;20.60;47.79
64874;HTU21D;51367;45.204;38.576;2023-08-21T01:55:54;20.54;47.94
64874;HTU21D;51367;45.204;38.576;2023-08-21T01:58:20;20.51;48.07
64874;HTU21D;51367;45.204;38.576;2023-08-21T02:00:46;20.50;48.12
64874;HTU21D;51367;45.204;38.576;2023-08-21T02:03:13;20.35;48.31
64874;HTU21D;51367;45.204;38.576;2023-08-21T02:05:39;20.21;48.64
64874;HTU21D;51367;45.204;38.576;2023-08-21T02:08:07;20.18;48.86
64874;HTU21D;51367;45.204;38.576;2023-08-21T02:10:34;20.16;48.89
64874;HTU21D;51367;45.204;38.576;2023-08-21T02:13:00;20.01;49.05
64874;HTU21D;51367;45.204;38.576;2023-08-21T02:15:26;19.90;49.38
64874;HTU21D;51367;45.204;38.576;2023-08-21T02:17:52;19.89;49.50
64874;HTU21D;51367;45.204;38.576;2023-08-21T02:20:18;19.82;49.60
64874;HTU21D;51367;45.204;38.576;2023-08-21T02:22:44;19.79;49.79
64874;HTU21D;51367;45.204;38.576;2023-08-21T02:25:10;19.81;49.85
64874;HTU21D;51367;45.204;38.576;2023-08-21T02:27:36;19.76;49.90
64874;HTU21D;51367;45.204;38.576;2023-08-21T02:30:04;19.75;50.00
64874;HTU21D;51367;45.204;38.576;2023-08-21T02:32:30;19.71;50.06
64874;HTU21D;51367;45.204;38.576;2023-08-21T02:34:56;19.71;50.14
64874;HTU21D;51367;45.204;38.576;2023-08-21T02:37:22;19.65;50.33
64874;HTU21D;51367;45.204;38.576;2023-08-21T02:39:48;19.65;50.48
64874;HTU21D;51367;45.204;38.576;2023-08-21T02:42:14;19.66;50.49
64874;HTU21D;51367;45.204;38.576;2023-08-21T02:44:40;19.58;50.58
64874;HTU21D;51367;45.204;38.576;2023-08-21T02:47:05;19.50;50.74
64874;HTU21D;51367;45.204;38.576;2023-08-21T02:49:31;19.51;50.83
64874;HTU21D;51367;45.204;38.576;2023-08-21T02:51:57;19.46;50.95
64874;HTU21D;51367;45.204;38.576;2023-08-21T02:54:23;19.47;51.05
64874;HTU21D;51367;45.204;38.576;2023-08-21T02:56:49;19.53;51.05
64874;HTU21D;51367;45.204;38.576;2023-08-21T02:59:17;19.56;51.04
64874;HTU21D;51367;45.204;38.576;2023-08-21T03:01:43;19.61;51.06
64874;HTU21D;51367;45.204;38.576;2023-08-21T03:04:08;19.65;51.04
64874;HTU21D;51367;45.204;38.576;2023-08-21T03:06:35;19.68;51.17
64874;HTU21D;51367;45.204;38.576;2023-08-21T03:09:01;19.72;51.23
64874;HTU21D;51367;45.204;38.576;2023-08-21T03:11:27;19.71;51.27
64874;HTU21D;51367;45.204;38.576;2023-08-21T03:13:54;19.74;51.38
64874;HTU21D;51367;45.204;38.576;2023-08-21T03:16:21;19.76;51.43
64874;HTU21D;51367;45.204;38.576;2023-08-21T03:18:55;19.85;51.76
64874;HTU21D;51367;45.204;38.576;2023-08-21T03:21:22;19.95;51.61
64874;HTU21D;51367;45.204;38.576;2023-08-21T03:23:57;20.06;51.66
64874;HTU21D;51367;45.204;38.576;2023-08-21T03:26:25;20.16;51.46
64874;HTU21D;51367;45.204;38.576;2023-08-21T03:28:51;20.27;51.45
64874;HTU21D;51367;45.204;38.576;2023-08-21T03:31:17;20.40;51.40
64874;HTU21D;51367;45.204;38.576;2023-08-21T03:33:43;20.54;51.33
64874;HTU21D;51367;45.204;38.576;2023-08-21T03:36:10;20.68;51.26
64874;HTU21D;51367;45.204;38.576;2023-08-21T03:38:36;20.79;51.24
64874;HTU21D;51367;45.204;38.576;2023-08-21T03:41:02;20.98;51.20
64874;HTU21D;51367;45.204;38.576;2023-08-21T03:43:28;21.17;51.06
64874;HTU21D;51367;45.204;38.576;2023-08-21T03:45:54;21.40;50.80
64874;HTU21D;51367;45.204;38.576;2023-08-21T03:48:20;21.66;50.55
64874;HTU21D;51367;45.204;38.576;2023-08-21T03:50:46;21.94;50.35
64874;HTU21D;51367;45.204;38.576;2023-08-21T03:53:12;22.22;50.13
64874;HTU21D;51367;45.204;38.576;2023-08-21T03:55:38;22.50;49.92
64874;HTU21D;51367;45.204;38.576;2023-08-21T03:58:04;22.78;49.66
64874;HTU21D;51367;45.204;38.576;2023-08-21T04:00:30;23.05;49.34
64874;HTU21D;51367;45.204;38.576;2023-08-21T04:02:57;23.29;49.00
64874;HTU21D;51367;45.204;38.576;2023-08-21T04:05:23;23.55;48.54
64874;HTU21D;51367;45.204;38.576;2023-08-21T04:07:49;23.76;48.14
64874;HTU21D;51367;45.204;38.576;2023-08-21T04:10:15;23.98;47.83
64874;HTU21D;51367;45.204;38.576;2023-08-21T04:12:42;24.17;47.54
64874;HTU21D;51367;45.204;38.576;2023-08-21T04:15:09;24.35;47.47
64874;HTU21D;51367;45.204;38.576;2023-08-21T04:17:35;24.59;47.33
64874;HTU21D;51367;45.204;38.576;2023-08-21T04:20:00;24.91;46.92
64874;HTU21D;51367;45.204;38.576;2023-08-21T04:22:26;25.21;46.36
64874;HTU21D;51367;45.204;38.576;2023-08-21T04:24:52;25.49;45.77
64874;HTU21D;51367;45.204;38.576;2023-08-21T04:27:18;25.68;45.32
64874;HTU21D;51367;45.204;38.576;2023-08-21T04:29:44;25.81;45.02
64874;HTU21D;51367;45.204;38.576;2023-08-21T04:32:10;25.87;44.80
64874;HTU21D;51367;45.204;38.576;2023-08-21T04:34:38;25.91;44.74
64874;HTU21D;51367;45.204;38.576;2023-08-21T04:37:04;25.96;44.55
64874;HTU21D;51367;45.204;38.576;2023-08-21T04:39:31;26.01;44.46
64874;HTU21D;51367;45.204;38.576;2023-08-21T04:41:57;26.05;44.37
64874;HTU21D;51367;45.204;38.576;2023-08-21T04:44:23;26.11;44.32
64874;HTU21D;51367;45.204;38.576;2023-08-21T04:46:50;26.21;44.22
64874;HTU21D;51367;45.204;38.576;2023-08-21T04:49:16;26.31;44.11
64874;HTU21D;51367;45.204;38.576;2023-08-21T04:51:42;26.46;43.87
64874;HTU21D;51367;45.204;38.576;2023-08-21T04:54:09;26.61;43.64
64874;HTU21D;51367;45.204;38.576;2023-08-21T04:56:35;26.73;43.37
64874;HTU21D;51367;45.204;38.576;2023-08-21T04:59:02;26.84;43.13
64874;HTU21D;51367;45.204;38.576;2023-08-21T05:01:30;26.94;42.94
64874;HTU21D;51367;45.204;38.576;2023-08-21T05:03:57;27.07;42.74
64874;HTU21D;51367;45.204;38.576;2023-08-21T05:06:24;27.19;42.53
64874;HTU21D;51367;45.204;38.576;2023-08-21T05:08:50;27.30;42.25
64874;HTU21D;51367;45.204;38.576;2023-08-21T05:11:16;27.41;42.05
64874;HTU21D;51367;45.204;38.576;2023-08-21T05:13:43;27.54;41.87
64874;HTU21D;51367;45.204;38.576;2023-08-21T05:16:11;27.66;41.71
64874;HTU21D;51367;45.204;38.576;2023-08-21T05:18:39;27.74;41.63
64874;HTU21D;51367;45.204;38.576;2023-08-21T05:21:05;27.87;41.38
64874;HTU21D;51367;45.204;38.576;2023-08-21T05:23:31;28.00;41.03
64874;HTU21D;51367;45.204;38.576;2023-08-21T05:26:04;28.09;40.82
64874;HTU21D;51367;45.204;38.576;2023-08-21T05:28:30;28.18;40.70
64874;HTU21D;51367;45.204;38.576;2023-08-21T05:30:57;28.30;40.57
64874;HTU21D;51367;45.204;38.576;2023-08-21T05:33:23;28.44;40.39
64874;HTU21D;51367;45.204;38.576;2023-08-21T05:35:50;28.60;40.21
64874;HTU21D;51367;45.204;38.576;2023-08-21T05:38:16;28.75;39.94
64874;HTU21D;51367;45.204;38.576;2023-08-21T05:40:42;28.90;39.71
64874;HTU21D;51367;45.204;38.576;2023-08-21T05:43:08;29.03;39.52
64874;HTU21D;51367;45.204;38.576;2023-08-21T05:45:36;29.15;39.33
64874;HTU21D;51367;45.204;38.576;2023-08-21T05:48:02;29.21;39.23
64874;HTU21D;51367;45.204;38.576;2023-08-21T05:50:29;29.31;39.07
64874;HTU21D;51367;45.204;38.576;2023-08-21T05:52:55;29.43;38.90
64874;HTU21D;51367;45.204;38.576;2023-08-21T05:55:24;29.56;38.72
64874;HTU21D;51367;45.204;38.576;2023-08-21T05:57:50;29.71;38.56
64874;HTU21D;51367;45.204;38.576;2023-08-21T06:00:19;29.83;38.49
64874;HTU21D;51367;45.204;38.576;2023-08-21T06:02:44;30.00;38.31
64874;HTU21D;51367;45.204;38.576;2023-08-21T06:05:22;30.15;38.09
64874;HTU21D;51367;45.204;38.576;2023-08-21T06:07:51;30.33;38.01
64874;HTU21D;51367;45.204;38.576;2023-08-21T06:10:17;30.51;37.96
64874;HTU21D;51367;45.204;38.576;2023-08-21T06:12:43;30.71;37.72
64874;HTU21D;51367;45.204;38.576;2023-08-21T06:15:10;30.86;37.62
64874;HTU21D;51367;45.204;38.576;2023-08-21T06:17:37;31.04;37.46
64874;HTU21D;51367;45.204;38.576;2023-08-21T06:20:04;31.21;37.13
64874;HTU21D;51367;45.204;38.576;2023-08-21T06:22:35;31.38;36.86
64874;HTU21D;51367;45.204;38.576;2023-08-21T06:25:01;31.57;36.78
64874;HTU21D;51367;45.204;38.576;2023-08-21T06:27:27;31.79;36.59
64874;HTU21D;51367;45.204;38.576;2023-08-21T06:29:53;31.98;36.30
64874;HTU21D;51367;45.204;38.576;2023-08-21T06:32:19;32.14;36.04
64874;HTU21D;51367;45.204;38.576;2023-08-21T06:34:45;32.29;35.85
64874;HTU21D;51367;45.204;38.576;2023-08-21T06:37:11;32.42;35.60
64874;HTU21D;51367;45.204;38.576;2023-08-21T06:39:38;32.59;35.47
64874;HTU21D;51367;45.204;38.576;2023-08-21T06:42:04;32.74;35.27
64874;HTU21D;51367;45.204;38.576;2023-08-21T06:44:38;32.90;35.08
64874;HTU21D;51367;45.204;38.576;2023-08-21T06:47:04;33.02;34.85
64874;HTU21D;51367;45.204;38.576;2023-08-21T06:49:30;33.14;34.59
64874;HTU21D;51367;45.204;38.576;2023-08-21T06:51:56;33.19;34.48
64874;HTU21D;51367;45.204;38.576;2023-08-21T06:54:22;33.25;34.39
64874;HTU21D;51367;45.204;38.576;2023-08-21T06:56:48;33.30;34.33
64874;HTU21D;51367;45.204;38.576;2023-08-21T06:59:14;33.35;34.35
64874;HTU21D;51367;45.204;38.576;2023-08-21T07:01:41;33.43;34.29
64874;HTU21D;51367;45.204;38.576;2023-08-21T07:04:06;33.55;34.25
64874;HTU21D;51367;45.204;38.576;2023-08-21T07:06:32;33.65;34.17
64874;HTU21D;51367;45.204;38.576;2023-08-21T07:08:58;33.79;34.00
64874;HTU21D;51367;45.204;38.576;2023-08-21T07:11:24;33.90;33.75
64874;HTU21D;51367;45.204;38.576;2023-08-21T07:13:50;34.00;33.71
64874;HTU21D;51367;45.204;38.576;2023-08-21T07:16:16;34.12;33.58
64874;HTU21D;51367;45.204;38.576;2023-08-21T07:18:42;34.27;33.49
64874;HTU21D;51367;45.204;38.576;2023-08-21T07:21:08;34.52;33.23
64874;HTU21D;51367;45.204;38.576;2023-08-21T07:23:34;34.80;32.80
64874;HTU21D;51367;45.204;38.576;2023-08-21T07:26:00;35.01;32.47
64874;HTU21D;51367;45.204;38.576;2023-08-21T07:28:26;35.27;32.34
64874;HTU21D;51367;45.204;38.576;2023-08-21T07:30:56;35.56;32.01
64874;HTU21D;51367;45.204;38.576;2023-08-21T07:33:23;35.74;31.86
64874;HTU21D;51367;45.204;38.576;2023-08-21T07:35:57;35.99;31.84
64874;HTU21D;51367;45.204;38.576;2023-08-21T07:38:23;36.41;31.80
64874;HTU21D;51367;45.204;38.576;2023-08-21T07:40:50;36.85;31.48
64874;HTU21D;51367;45.204;38.576;2023-08-21T07:43:15;37.23;30.91
64874;HTU21D;51367;45.204;38.576;2023-08-21T07:45:41;37.51;30.27
64874;HTU21D;51367;45.204;38.576;2023-08-21T07:48:07;37.67;29.80
64874;HTU21D;51367;45.204;38.576;2023-08-21T07:50:33;37.82;29.36
64874;HTU21D;51367;45.204;38.576;2023-08-21T07:52:59;37.96;29.12
64874;HTU21D;51367;45.204;38.576;2023-08-21T07:55:25;38.08;28.75
64874;HTU21D;51367;45.204;38.576;2023-08-21T07:57:51;38.12;28.52
64874;HTU21D;51367;45.204;38.576;2023-08-21T08:00:17;38.14;28.29
64874;HTU21D;51367;45.204;38.576;2023-08-21T08:02:43;38.14;28.14
64874;HTU21D;51367;45.204;38.576;2023-08-21T08:05:09;37.99;27.81
64874;HTU21D;51367;45.204;38.576;2023-08-21T08:07:34;37.77;27.74
64874;HTU21D;51367;45.204;38.576;2023-08-21T08:10:00;37.58;27.91
64874;HTU21D;51367;45.204;38.576;2023-08-21T08:12:26;37.54;27.91
64874;HTU21D;51367;45.204;38.576;2023-08-21T08:14:52;37.49;27.81
64874;HTU21D;51367;45.204;38.576;2023-08-21T08:17:18;37.41;27.71
64874;HTU21D;51367;45.204;38.576;2023-08-21T08:19:44;37.30;27.74
64874;HTU21D;51367;45.204;38.576;2023-08-21T08:22:10;37.22;27.74
64874;HTU21D;51367;45.204;38.576;2023-08-21T08:24:35;37.18;27.68
64874;HTU21D;51367;45.204;38.576;2023-08-21T08:27:01;37.11;27.60
64874;HTU21D;51367;45.204;38.576;2023-08-21T08:29:27;37.01;27.65
64874;HTU21D;51367;45.204;38.576;2023-08-21T08:31:53;36.95;27.69
64874;HTU21D;51367;45.204;38.576;2023-08-21T08:34:19;36.89;27.65
64874;HTU21D;51367;45.204;38.576;2023-08-21T08:36:46;36.87;27.54
64874;HTU21D;51367;45.204;38.576;2023-08-21T08:39:12;36.85;27.55
64874;HTU21D;51367;45.204;38.576;2023-08-21T08:41:44;36.86;27.54
64874;HTU21D;51367;45.204;38.576;2023-08-21T08:44:13;36.90;27.38
64874;HTU21D;51367;45.204;38.576;2023-08-21T08:46:40;36.90;27.36
64874;HTU21D;51367;45.204;38.576;2023-08-21T08:49:06;36.88;27.36
64874;HTU21D;51367;45.204;38.576;2023-08-21T08:51:34;36.90;27.14
64874;HTU21D;51367;45.204;38.576;2023-08-21T08:54:00;36.89;27.08
64874;HTU21D;51367;45.204;38.576;2023-08-21T08:56:26;36.87;27.06
64874;HTU21D;51367;45.204;38.576;2023-08-21T08:58:52;36.86;27.00
64874;HTU21D;51367;45.204;38.576;2023-08-21T09:01:18;36.88;26.88
64874;HTU21D;51367;45.204;38.576;2023-08-21T09:03:44;36.90;26.95
64874;HTU21D;51367;45.204;38.576;2023-08-21T09:06:10;36.96;26.97
64874;HTU21D;51367;45.204;38.576;2023-08-21T09:08:36;36.99;27.01
64874;HTU21D;51367;45.204;38.576;2023-08-21T09:11:02;37.02;27.09
64874;HTU21D;51367;45.204;38.576;2023-08-21T09:13:31;37.12;27.08
64874;HTU21D;51367;45.204;38.576;2023-08-21T09:15:58;37.20;26.81
64874;HTU21D;51367;45.204;38.576;2023-08-21T09:18:24;37.27;26.77
64874;HTU21D;51367;45.204;38.576;2023-08-21T09:20:50;37.36;26.52
64874;HTU21D;51367;45.204;38.576;2023-08-21T09:23:18;37.40;26.36
64874;HTU21D;51367;45.204;38.576;2023-08-21T09:25:45;37.41;26.28
64874;HTU21D;51367;45.204;38.576;2023-08-21T09:28:18;37.44;26.12
64874;HTU21D;51367;45.204;38.576;2023-08-21T09:30:54;37.38;26.17
64874;HTU21D;51367;45.204;38.576;2023-08-21T09:33:24;37.44;26.20
64874;HTU21D;51367;45.204;38.576;2023-08-21T09:35:53;37.47;26.06
64874;HTU21D;51367;45.204;38.576;2023-08-21T09:38:20;37.50;25.87
64874;HTU21D;51367;45.204;38.576;2023-08-21T09:40:54;37.48;25.75
64874;HTU21D;51367;45.204;38.576;2023-08-21T09:43:21;37.49;25.69
64874;HTU21D;51367;45.204;38.576;2023-08-21T09:45:49;37.55;25.63
64874;HTU21D;51367;45.204;38.576;2023-08-21T09:48:16;37.58;25.61
64874;HTU21D;51367;45.204;38.576;2023-08-21T09:50:43;37.58;25.52
64874;HTU21D;51367;45.204;38.576;2023-08-21T09:53:09;37.59;25.36
64874;HTU21D;51367;45.204;38.576;2023-08-21T09:55:36;37.59;25.30
64874;HTU21D;51367;45.204;38.576;2023-08-21T09:58:04;37.64;25.40
64874;HTU21D;51367;45.204;38.576;2023-08-21T10:00:34;37.73;25.18
64874;HTU21D;51367;45.204;38.576;2023-08-21T10:03:03;37.78;24.99
64874;HTU21D;51367;45.204;38.576;2023-08-21T10:05:31;37.82;24.86
64874;HTU21D;51367;45.204;38.576;2023-08-21T10:08:00;37.86;24.72
64874;HTU21D;51367;45.204;38.576;2023-08-21T10:10:39;37.90;24.69
64874;HTU21D;51367;45.204;38.576;2023-08-21T10:13:07;38.00;24.65
64874;HTU21D;51367;45.204;38.576;2023-08-21T10:15:34;38.10;24.49
64874;HTU21D;51367;45.204;38.576;2023-08-21T10:18:24;38.12;24.41
64874;HTU21D;51367;45.204;38.576;2023-08-21T10:20:51;38.14;24.30
64874;HTU21D;51367;45.204;38.576;2023-08-21T10:23:30;38.07;24.11
64874;HTU21D;51367;45.204;38.576;2023-08-21T10:25:58;38.03;24.22
64874;HTU21D;51367;45.204;38.576;2023-08-21T10:28:24;38.05;24.20
64874;HTU21D;51367;45.204;38.576;2023-08-21T10:30:50;38.05;24.13
64874;HTU21D;51367;45.204;38.576;2023-08-21T10:33:17;38.09;24.08
64874;HTU21D;51367;45.204;38.576;2023-08-21T10:35:45;38.14;23.91
64874;HTU21D;51367;45.204;38.576;2023-08-21T10:38:16;38.15;23.70
64874;HTU21D;51367;45.204;38.576;2023-08-21T10:41:08;38.16;23.69
64874;HTU21D;51367;45.204;38.576;2023-08-21T10:43:39;38.03;23.72
64874;HTU21D;51367;45.204;38.576;2023-08-21T10:46:06;37.97;23.82
64874;HTU21D;51367;45.204;38.576;2023-08-21T10:48:32;38.03;23.80
64874;HTU21D;51367;45.204;38.576;2023-08-21T10:51:00;38.07;23.53
64874;HTU21D;51367;45.204;38.576;2023-08-21T10:53:27;38.09;23.33
64874;HTU21D;51367;45.204;38.576;2023-08-21T10:55:54;38.07;23.08
64874;HTU21D;51367;45.204;38.576;2023-08-21T10:58:20;38.08;23.11
64874;HTU21D;51367;45.204;38.576;2023-08-21T11:00:46;38.09;23.12
64874;HTU21D;51367;45.204;38.576;2023-08-21T11:03:14;38.14;23.07
64874;HTU21D;51367;45.204;38.576;2023-08-21T11:05:40;38.17;22.88
64874;HTU21D;51367;45.204;38.576;2023-08-21T11:08:06;38.17;22.81
64874;HTU21D;51367;45.204;38.576;2023-08-21T11:10:33;38.18;22.56
64874;HTU21D;51367;45.204;38.576;2023-08-21T11:12:59;38.16;22.50
64874;HTU21D;51367;45.204;38.576;2023-08-21T11:15:29;38.18;22.57
64874;HTU21D;51367;45.204;38.576;2023-08-21T11:18:00;38.23;22.50
64874;HTU21D;51367;45.204;38.576;2023-08-21T11:22:59;38.34;22.37
64874;HTU21D;51367;45.204;38.576;2023-08-21T11:25:29;38.33;22.11
64874;HTU21D;51367;45.204;38.576;2023-08-21T11:27:55;38.30;21.99
64874;HTU21D;51367;45.204;38.576;2023-08-21T11:30:24;38.28;21.95
64874;HTU21D;51367;45.204;38.576;2023-08-21T11:33:13;38.29;21.96
64874;HTU21D;51367;45.204;38.576;2023-08-21T11:35:39;38.34;22.10
64874;HTU21D;51367;45.204;38.576;2023-08-21T11:38:06;38.39;21.95
64874;HTU21D;51367;45.204;38.576;2023-08-21T11:40:35;38.44;21.80
64874;HTU21D;51367;45.204;38.576;2023-08-21T11:43:01;38.45;21.90
64874;HTU21D;51367;45.204;38.576;2023-08-21T11:45:28;38.43;21.95
64874;HTU21D;51367;45.204;38.576;2023-08-21T11:47:56;38.41;21.92
64874;HTU21D;51367;45.204;38.576;2023-08-21T11:50:22;38.39;22.02
64874;HTU21D;51367;45.204;38.576;2023-08-21T11:52:52;38.43;22.12
64874;HTU21D;51367;45.204;38.576;2023-08-21T11:55:18;38.51;22.11
64874;HTU21D;51367;45.204;38.576;2023-08-21T11:57:48;38.58;22.02
64874;HTU21D;51367;45.204;38.576;2023-08-21T12:00:15;38.64;22.13
64874;HTU21D;51367;45.204;38.576;2023-08-21T12:02:57;38.67;22.01
64874;HTU21D;51367;45.204;38.576;2023-08-21T12:05:23;38.68;22.08
64874;HTU21D;51367;45.204;38.576;2023-08-21T12:07:49;38.69;22.12
64874;HTU21D;51367;45.204;38.576;2023-08-21T12:10:25;38.73;22.11
64874;HTU21D;51367;45.204;38.576;2023-08-21T12:12:52;38.82;22.15
64874;HTU21D;51367;45.204;38.576;2023-08-21T12:15:18;38.86;22.12
64874;HTU21D;51367;45.204;38.576;2023-08-21T12:17:44;38.83;22.10
64874;HTU21D;51367;45.204;38.576;2023-08-21T12:20:10;38.78;22.11
64874;HTU21D;51367;45.204;38.576;2023-08-21T12:22:40;38.73;22.15
64874;HTU21D;51367;45.204;38.576;2023-08-21T12:25:06;38.66;22.30
64874;HTU21D;51367;45.204;38.576;2023-08-21T12:27:33;38.67;22.40
64874;HTU21D;51367;45.204;38.576;2023-08-21T12:29:59;38.70;22.43
64874;HTU21D;51367;45.204;38.576;2023-08-21T12:32:24;38.76;22.40
64874;HTU21D;51367;45.204;38.576;2023-08-21T12:34:50;38.85;22.39
64874;HTU21D;51367;45.204;38.576;2023-08-21T12:37:17;38.90;22.34
64874;HTU21D;51367;45.204;38.576;2023-08-21T12:39:43;38.94;22.32
64874;HTU21D;51367;45.204;38.576;2023-08-21T12:42:09;38.99;22.31
64874;HTU21D;51367;45.204;38.576;2023-08-21T12:44:35;39.03;22.28
64874;HTU21D;51367;45.204;38.576;2023-08-21T12:47:01;39.08;22.31
64874;HTU21D;51367;45.204;38.576;2023-08-21T12:49:27;39.09;22.28
64874;HTU21D;51367;45.204;38.576;2023-08-21T12:51:53;39.03;22.19
64874;HTU21D;51367;45.204;38.576;2023-08-21T12:54:19;38.80;22.34
64874;HTU21D;51367;45.204;38.576;2023-08-21T12:56:45;38.56;22.58
64874;HTU21D;51367;45.204;38.576;2023-08-21T12:59:12;38.40;22.79
64874;HTU21D;51367;45.204;38.576;2023-08-21T13:01:38;38.29;22.99
64874;HTU21D;51367;45.204;38.576;2023-08-21T13:04:04;38.17;23.01
64874;HTU21D;51367;45.204;38.576;2023-08-21T13:06:30;38.14;22.94
64874;HTU21D;51367;45.204;38.576;2023-08-21T13:08:55;38.22;22.89
64874;HTU21D;51367;45.204;38.576;2023-08-21T13:11:21;38.34;22.82
64874;HTU21D;51367;45.204;38.576;2023-08-21T13:13:47;38.46;22.70
64874;HTU21D;51367;45.204;38.576;2023-08-21T13:16:14;38.58;22.63
64874;HTU21D;51367;45.204;38.576;2023-08-21T13:18:40;38.67;22.42
64874;HTU21D;51367;45.204;38.576;2023-08-21T13:21:06;38.69;22.27
64874;HTU21D;51367;45.204;38.576;2023-08-21T13:23:32;38.66;22.40
64874;HTU21D;51367;45.204;38.576;2023-08-21T13:25:59;38.69;22.47
64874;HTU21D;51367;45.204;38.576;2023-08-21T13:28:25;38.78;22.38
64874;HTU21D;51367;45.204;38.576;2023-08-21T13:30:51;38.78;22.43
64874;HTU21D;51367;45.204;38.576;2023-08-21T13:33:18;38.78;22.53
64874;HTU21D;51367;45.204;38.576;2023-08-21T13:35:45;38.82;22.47
64874;HTU21D;51367;45.204;38.576;2023-08-21T13:38:12;38.89;22.38
64874;HTU21D;51367;45.204;38.576;2023-08-21T13:40:39;38.93;22.26
64874;HTU21D;51367;45.204;38.576;2023-08-21T13:43:06;38.94;22.11
64874;HTU21D;51367;45.204;38.576;2023-08-21T13:45:33;38.96;22.25
64874;HTU21D;51367;45.204;38.576;2023-08-21T13:47:59;38.99;22.24
64874;HTU21D;51367;45.204;38.576;2023-08-21T13:50:25;39.03;22.15
64874;HTU21D;51367;45.204;38.576;2023-08-21T13:52:51;38.95;22.18
64874;HTU21D;51367;45.204;38.576;2023-08-21T13:55:17;38.93;22.32
64874;HTU21D;51367;45.204;38.576;2023-08-21T13:57:43;38.95;22.46
64874;HTU21D;51367;45.204;38.576;2023-08-21T14:00:10;38.91;22.80
64874;HTU21D;51367;45.204;38.576;2023-08-21T14:02:40;38.85;22.98
64874;HTU21D;51367;45.204;38.576;2023-08-21T14:05:07;38.71;23.03
64874;HTU21D;51367;45.204;38.576;2023-08-21T14:07:34;38.56;23.30
64874;HTU21D;51367;45.204;38.576;2023-08-21T14:10:00;38.50;23.41
64874;HTU21D;51367;45.204;38.576;2023-08-21T14:12:29;38.43;23.50
64874;HTU21D;51367;45.204;38.576;2023-08-21T14:14:55;38.34;23.72
64874;HTU21D;51367;45.204;38.576;2023-08-21T14:17:21;38.26;23.82
64874;HTU21D;51367;45.204;38.576;2023-08-21T14:19:47;38.17;23.94
64874;HTU21D;51367;45.204;38.576;2023-08-21T14:22:13;38.06;24.00
64874;HTU21D;51367;45.204;38.576;2023-08-21T14:24:39;37.99;23.95
64874;HTU21D;51367;45.204;38.576;2023-08-21T14:27:05;37.92;23.98
64874;HTU21D;51367;45.204;38.576;2023-08-21T14:29:31;37.88;24.04
64874;HTU21D;51367;45.204;38.576;2023-08-21T14:31:58;37.87;24.10
64874;HTU21D;51367;45.204;38.576;2023-08-21T14:34:26;37.84;24.13
64874;HTU21D;51367;45.204;38.576;2023-08-21T14:36:53;37.78;24.08
64874;HTU21D;51367;45.204;38.576;2023-08-21T14:39:24;37.62;24.22
64874;HTU21D;51367;45.204;38.576;2023-08-21T14:41:57;37.55;24.32
64874;HTU21D;51367;45.204;38.576;2023-08-21T14:44:23;37.45;24.43
64874;HTU21D;51367;45.204;38.576;2023-08-21T14:46:49;37.37;24.56
64874;HTU21D;51367;45.204;38.576;2023-08-21T14:49:15;37.30;24.63
64874;HTU21D;51367;45.204;38.576;2023-08-21T14:51:41;37.20;24.70
64874;HTU21D;51367;45.204;38.576;2023-08-21T14:54:07;37.11;24.85
64874;HTU21D;51367;45.204;38.576;2023-08-21T14:56:33;37.01;24.98
64874;HTU21D;51367;45.204;38.576;2023-08-21T14:58:59;36.89;25.14
64874;HTU21D;51367;45.204;38.576;2023-08-21T15:01:25;36.83;25.23
64874;HTU21D;51367;45.204;38.576;2023-08-21T15:03:51;36.76;25.34
64874;HTU21D;51367;45.204;38.576;2023-08-21T15:06:16;36.66;25.42
64874;HTU21D;51367;45.204;38.576;2023-08-21T15:08:42;36.55;25.51